Ellet, Ohio
Current Conditions -  °F | °C
As of 1:54 PM on Friday 28 Nov 2014 (Local Time) from KAKR Reporting Station
Overcast Overcast  
Wind Chill: 17°   Ceiling: 2900
Heat Index: 26°   Visibility: 10mi
Dew Point: 16°   Wind: 9mph
Humidity: 66%   Direction: 230°SW
Pressure: 30.25"   Gusts: NA
Location:  41.0159°N, 81.4403°W
Report Text: KAKR 281854Z AUTO 23008KT 10SM OVC029 M03/M09 A3025 RMK AO2 SLP256 T10331089 $
Loading
Personal Weather Stations






























Interactive Weather Map New forecast layout! Learn more

10-Day Weather Forecast

Advertisements
Track Severe Weather on mobile